CheckWX is a tool to help pilots better visualize weather data.  It is not intended as a substitute for an official pre-flight weather briefing.

05:15:08 UTC

AYNZ METAR
Lae Nadzab Airport
Nadzab, Papua New Guinea
Current

1 hour ago

AYNZ 180400Z 12010KT 9999 FU HZ SCT035 BKN080 30/21 Q1008 RMK: BUILD UPS IN AREA
Observed
Jun-18 @ 04:00 UTC
Wind
  • 120° at 10 KTS
Visibility
10,000+ meters
Flight Rules
VFR
Conditions
Smoke, Haze
Cloud Levels
  • Scattered at 3,500' AGL
  • Broken at 8,000' AGL
Temperature
30°C / 86°F
Dewpoint
21°C / 70°F
Heat Index
33°C / 91°F
Humidity
59%
Altimeter
29.76" Hg
Pressure
1007.92 hPa
Previous

2 hours ago

AYNZ 180300Z 10005KT 9999 SCT035 BKN080 30/21 Q1009 RMK: BUILD UPS IN AREA
Observed
Jun-18 @ 03:00 UTC
Wind
  • 100° at 5 KTS
Visibility
10,000+ meters
Flight Rules
VFR
Cloud Levels
  • Scattered at 3,500' AGL
  • Broken at 8,000' AGL
Temperature
30°C / 86°F
Dewpoint
21°C / 70°F
Heat Index
33°C / 91°F
Humidity
59%
Altimeter
29.79" Hg
Pressure
1008.92 hPa
Previous

4 hours ago

AYNZ 180100Z VRB03KT 9999 SCT030 28/22 Q1011
Observed
Jun-18 @ 01:00 UTC
Wind
  • Variable at 3 KTS
Visibility
10,000+ meters
Flight Rules
VFR
Cloud Levels
  • Scattered at 3,000' AGL
Temperature
28°C / 82°F
Dewpoint
22°C / 72°F
Heat Index
30°C / 86°F
Humidity
70%
Altimeter
29.85" Hg
Pressure
1010.92 hPa